createdAt,value
2019-03-20T00:01:59.106Z,42.17
2019-03-20T00:04:29.833Z,39.30
2019-03-20T00:07:00.379Z,39.00
2019-03-20T00:09:30.996Z,38.17
2019-03-20T00:12:01.547Z,40.83
2019-03-20T00:14:32.079Z,44.20
2019-03-20T00:17:04.051Z,43.70
2019-03-20T00:19:34.725Z,43.77
2019-03-20T00:22:05.200Z,49.47
2019-03-20T00:24:35.729Z,47.97
2019-03-20T00:27:06.363Z,41.83
2019-03-20T00:29:36.897Z,40.93
2019-03-20T00:32:07.454Z,44.50
2019-03-20T00:34:37.975Z,43.00
2019-03-20T00:37:09.541Z,38.93
2019-03-20T00:39:40.041Z,39.13
2019-03-20T00:42:10.821Z,37.40
2019-03-20T00:44:41.344Z,37.97
2019-03-20T00:47:11.895Z,35.90
2019-03-20T00:49:42.415Z,33.80
2019-03-20T00:52:12.957Z,33.63
2019-03-20T00:54:43.487Z,34.90
2019-03-20T00:57:14.027Z,34.10
2019-03-20T00:59:44.552Z,33.57
2019-03-20T01:02:15.113Z,33.73
2019-03-20T01:04:46.662Z,33.10
2019-03-20T01:07:17.145Z,33.10
2019-03-20T01:09:47.596Z,33.63
2019-03-20T01:12:18.073Z,31.57
2019-03-20T01:14:48.521Z,34.63
2019-03-20T01:17:19.010Z,31.37
2019-03-20T01:19:49.450Z,31.70
2019-03-20T01:22:19.952Z,33.10
2019-03-20T01:24:50.461Z,34.43
2019-03-20T01:27:20.959Z,32.90
2019-03-20T01:29:51.417Z,34.43
2019-03-20T01:32:21.921Z,31.77
2019-03-20T01:34:52.446Z,32.47
2019-03-20T01:37:22.925Z,31.80
2019-03-20T01:39:53.380Z,32.30
2019-03-20T01:42:23.870Z,31.13
2019-03-20T01:44:54.397Z,27.50
2019-03-20T01:47:25.143Z,28.33
2019-03-20T01:49:55.607Z,28.13
2019-03-20T01:52:26.153Z,26.97
2019-03-20T01:54:56.581Z,29.03
2019-03-20T01:57:27.126Z,27.43
2019-03-20T01:59:57.657Z,31.27
2019-03-20T02:02:28.209Z,30.83
2019-03-20T02:04:58.667Z,30.87
2019-03-20T02:07:29.158Z,29.40
2019-03-20T02:09:59.688Z,30.23
2019-03-20T02:12:30.243Z,28.87
2019-03-20T02:15:00.687Z,29.47
2019-03-20T02:17:31.216Z,28.43
2019-03-20T02:20:01.748Z,27.13
2019-03-20T02:22:32.300Z,27.47
2019-03-20T02:25:04.647Z,25.63
2019-03-20T02:27:35.139Z,25.33
2019-03-20T02:30:11.911Z,24.33
2019-03-20T02:32:42.461Z,23.60
2019-03-20T02:35:13.268Z,23.03
2019-03-20T02:37:43.820Z,23.93
2019-03-20T02:40:15.129Z,23.37
2019-03-20T02:42:45.747Z,23.70
2019-03-20T02:45:16.840Z,23.63
2019-03-20T02:47:47.401Z,22.73
2019-03-20T02:50:17.863Z,23.00
2019-03-20T02:52:48.343Z,23.57
2019-03-20T02:55:18.860Z,26.47
2019-03-20T02:57:49.335Z,24.73
2019-03-20T03:00:20.823Z,24.57
2019-03-20T03:03:11.486Z,24.10
2019-03-20T03:05:42.001Z,23.90
2019-03-20T03:08:12.554Z,24.87
2019-03-20T03:10:43.015Z,24.80
2019-03-20T03:13:13.504Z,24.10
2019-03-20T03:15:43.981Z,23.97
2019-03-20T03:18:14.478Z,23.70
2019-03-20T03:20:46.005Z,25.27
2019-03-20T03:23:16.556Z,24.17
2019-03-20T03:25:49.926Z,25.57
2019-03-20T03:28:19.324Z,26.20
2019-03-20T03:30:49.848Z,26.10
2019-03-20T03:33:20.504Z,24.70
2019-03-20T03:35:51.127Z,25.00
2019-03-20T03:38:21.625Z,24.50
2019-03-20T03:40:52.079Z,22.83
2019-03-20T03:43:24.384Z,23.80
2019-03-20T03:45:54.823Z,25.37
2019-03-20T03:48:25.353Z,25.03
2019-03-20T03:50:55.798Z,25.43
2019-03-20T03:53:26.292Z,23.93
2019-03-20T03:55:56.829Z,25.70
2019-03-20T03:58:27.310Z,23.80
2019-03-20T04:00:57.807Z,25.63
2019-03-20T04:03:28.262Z,26.47
2019-03-20T04:05:58.804Z,25.47
2019-03-20T04:08:29.412Z,24.50
2019-03-20T04:10:59.844Z,24.50
2019-03-20T04:13:30.398Z,25.00
2019-03-20T04:16:01.010Z,24.97
2019-03-20T04:18:31.543Z,23.87
2019-03-20T04:21:02.004Z,25.20
2019-03-20T04:23:32.574Z,25.43
2019-03-20T04:26:03.021Z,24.67
2019-03-20T04:28:33.514Z,24.63
2019-03-20T04:31:04.086Z,24.10
2019-03-20T04:33:34.577Z,25.80
2019-03-20T04:36:05.111Z,24.00
2019-03-20T04:38:35.648Z,25.57
2019-03-20T04:41:06.107Z,28.43
2019-03-20T04:43:36.670Z,37.53
2019-03-20T04:46:07.217Z,68.73
2019-03-20T04:48:37.735Z,51.63
2019-03-20T04:51:08.191Z,49.93
2019-03-20T04:53:38.726Z,31.50
2019-03-20T04:56:09.189Z,24.37
2019-03-20T04:58:39.676Z,25.83
2019-03-20T05:01:10.190Z,24.27
2019-03-20T05:03:40.666Z,23.17
2019-03-20T05:06:11.186Z,23.10
2019-03-20T05:08:41.667Z,23.80
2019-03-20T05:11:12.116Z,21.73
2019-03-20T05:13:42.691Z,24.40
2019-03-20T05:16:13.143Z,21.40
2019-03-20T05:18:43.701Z,20.90
2019-03-20T05:21:14.170Z,21.13
2019-03-20T05:23:44.655Z,21.40
2019-03-20T05:26:15.178Z,21.50
2019-03-20T05:28:45.734Z,20.83
2019-03-20T05:31:16.252Z,22.20
2019-03-20T05:33:47.809Z,23.40
2019-03-20T05:36:18.258Z,25.10
2019-03-20T05:38:48.747Z,25.73
2019-03-20T05:41:19.261Z,25.07
2019-03-20T05:43:49.817Z,25.27
2019-03-20T05:46:20.355Z,26.70
2019-03-20T05:48:51.001Z,21.43
2019-03-20T05:51:21.528Z,21.63
2019-03-20T05:53:52.090Z,21.33
2019-03-20T05:56:22.553Z,21.33
2019-03-20T05:58:53.117Z,20.00
2019-03-20T06:01:23.776Z,19.63
2019-03-20T06:03:54.324Z,20.53
2019-03-20T06:06:24.785Z,20.73
2019-03-20T06:08:55.348Z,21.23
2019-03-20T06:11:25.791Z,19.67
2019-03-20T06:13:56.268Z,20.30
2019-03-20T06:16:26.791Z,22.43
2019-03-20T06:18:57.328Z,22.63
2019-03-20T06:21:28.144Z,17.00
2019-03-20T06:23:58.609Z,19.07
2019-03-20T06:26:29.114Z,18.83
2019-03-20T06:28:59.599Z,16.87
2019-03-20T06:31:30.109Z,19.70
2019-03-20T06:34:00.653Z,18.67
2019-03-20T06:36:31.177Z,18.50
2019-03-20T06:39:01.846Z,19.73
2019-03-20T06:41:32.886Z,19.10
2019-03-20T06:44:03.433Z,19.67
2019-03-20T06:46:33.869Z,19.20
2019-03-20T06:49:04.462Z,19.93
2019-03-20T06:51:36.605Z,22.93
2019-03-20T06:54:08.115Z,25.73
2019-03-20T06:56:38.550Z,25.07
2019-03-20T06:59:29.995Z,22.07
2019-03-20T07:02:03.614Z,18.27
2019-03-20T07:04:55.050Z,17.70
2019-03-20T07:07:43.676Z,18.63
2019-03-20T07:10:25.236Z,19.73
2019-03-20T07:12:55.748Z,20.07
2019-03-20T07:15:26.298Z,23.37
2019-03-20T07:17:56.739Z,21.07
2019-03-20T07:20:27.195Z,23.00
2019-03-20T07:22:57.703Z,16.43
2019-03-20T07:25:28.162Z,19.43
2019-03-20T07:27:58.683Z,17.90
2019-03-20T07:30:29.226Z,17.60
2019-03-20T07:32:59.838Z,20.57
2019-03-20T07:35:30.311Z,16.87
2019-03-20T07:38:00.833Z,20.07
2019-03-20T07:40:31.382Z,15.93
2019-03-20T07:43:08.632Z,15.10
2019-03-20T07:45:34.124Z,20.07
2019-03-20T07:48:04.608Z,16.83
2019-03-20T07:50:35.379Z,15.30
2019-03-20T07:53:05.799Z,16.17
2019-03-20T07:55:36.282Z,15.50
2019-03-20T07:58:06.754Z,17.77
2019-03-20T08:00:37.311Z,16.73
2019-03-20T08:03:07.754Z,15.87
2019-03-20T08:05:38.306Z,16.07
2019-03-20T08:08:08.756Z,14.67
2019-03-20T08:10:39.286Z,15.90
2019-03-20T08:13:09.734Z,14.67
2019-03-20T08:15:40.272Z,13.70
2019-03-20T08:18:10.767Z,14.27
2019-03-20T08:20:41.244Z,12.97
2019-03-20T08:23:11.683Z,13.43
2019-03-20T08:25:42.229Z,12.73
2019-03-20T08:28:12.729Z,10.97
2019-03-20T08:30:43.268Z,13.47
2019-03-20T08:33:13.757Z,14.40
2019-03-20T08:35:44.230Z,14.50
2019-03-20T08:38:18.702Z,14.28
2019-03-20T08:40:46.834Z,14.55
2019-03-20T08:43:17.255Z,11.38
2019-03-20T08:45:47.724Z,11.55
2019-03-20T08:48:18.165Z,11.22
2019-03-20T08:50:48.693Z,12.13
2019-03-20T08:53:20.190Z,11.55
2019-03-20T08:55:50.737Z,11.43
2019-03-20T08:58:21.444Z,9.25
2019-03-20T09:00:51.908Z,9.45
2019-03-20T09:03:22.394Z,11.25
2019-03-20T09:05:52.929Z,10.25
2019-03-20T09:08:29.411Z,6.22
2019-03-20T09:10:55.556Z,9.15
2019-03-20T09:13:25.989Z,7.00
2019-03-20T09:15:56.445Z,6.95
2019-03-20T09:18:26.938Z,6.58
2019-03-20T09:20:57.767Z,6.80
2019-03-20T09:23:28.178Z,7.37
2019-03-20T09:25:58.644Z,9.65
2019-03-20T09:28:29.056Z,6.00
2019-03-20T09:30:59.530Z,8.58
2019-03-20T09:33:30.011Z,6.22
2019-03-20T09:36:00.483Z,5.78
2019-03-20T09:38:42.721Z,7.05
2019-03-20T09:41:04.201Z,7.97
2019-03-20T09:43:34.684Z,5.92
2019-03-20T09:46:06.133Z,6.45
2019-03-20T09:48:36.956Z,7.05
2019-03-20T09:51:07.419Z,5.85
2019-03-20T09:53:39.269Z,5.25
2019-03-20T09:56:09.719Z,5.70
2019-03-20T09:58:40.217Z,6.40
2019-03-20T10:01:10.702Z,6.58
2019-03-20T10:03:41.126Z,5.50
2019-03-20T10:06:11.579Z,3.87
2019-03-20T10:08:41.989Z,3.83
2019-03-20T10:11:12.526Z,4.75
2019-03-20T10:13:42.943Z,5.17
2019-03-20T10:16:13.459Z,6.37
2019-03-20T10:18:43.899Z,3.47
2019-03-20T10:21:14.433Z,5.15
2019-03-20T10:23:44.851Z,5.70
2019-03-20T10:26:15.311Z,4.33
2019-03-20T10:28:45.717Z,2.50
2019-03-20T10:31:16.184Z,4.03
2019-03-20T10:33:46.593Z,3.35
2019-03-20T10:36:17.048Z,2.50
2019-03-20T10:38:48.684Z,2.25
2019-03-20T10:41:19.379Z,3.10
2019-03-20T10:43:52.251Z,3.08
2019-03-20T10:46:22.020Z,2.02
2019-03-20T10:48:52.755Z,2.17
2019-03-20T10:51:23.734Z,1.90
2019-03-20T10:53:54.315Z,1.95
2019-03-20T10:56:24.923Z,4.05
2019-03-20T10:58:55.537Z,2.25
2019-03-20T11:01:26.203Z,1.62
2019-03-20T11:03:56.690Z,1.67
2019-03-20T11:06:27.144Z,1.82
2019-03-20T11:08:57.555Z,1.62
2019-03-20T11:11:28.022Z,2.10
2019-03-20T11:13:58.435Z,2.30
2019-03-20T11:16:28.907Z,2.60
2019-03-20T11:18:59.326Z,2.85
2019-03-20T11:21:29.841Z,2.90
2019-03-20T11:24:00.254Z,2.70
2019-03-20T11:26:31.804Z,2.70
2019-03-20T11:29:02.225Z,2.90
2019-03-20T11:31:33.018Z,3.17
2019-03-20T11:34:03.501Z,2.67
2019-03-20T11:36:34.107Z,3.17
2019-03-20T11:39:07.953Z,2.20
2019-03-20T11:41:38.497Z,4.10
2019-03-20T11:44:08.998Z,5.28
2019-03-20T11:46:39.475Z,3.40
2019-03-20T11:49:10.344Z,3.05
2019-03-20T11:51:40.815Z,3.55
2019-03-20T11:54:11.234Z,4.15
2019-03-20T11:56:41.855Z,3.10
2019-03-20T11:59:12.270Z,2.95
2019-03-20T12:01:43.107Z,3.98
2019-03-20T12:04:13.542Z,5.72
2019-03-20T12:06:44.002Z,5.83
2019-03-20T12:09:14.419Z,4.30
2019-03-20T12:11:46.205Z,6.28
2019-03-20T12:14:16.834Z,2.37
2019-03-20T12:16:47.382Z,2.67
2019-03-20T12:19:17.857Z,2.92
2019-03-20T12:21:48.345Z,3.65
2019-03-20T12:24:18.834Z,3.42
2019-03-20T12:26:49.378Z,3.00
2019-03-20T12:29:19.802Z,3.15
2019-03-20T12:31:50.342Z,3.52
2019-03-20T12:34:20.771Z,3.08
2019-03-20T12:36:51.302Z,3.12
2019-03-20T12:39:22.787Z,2.62
2019-03-20T12:41:53.332Z,2.72
2019-03-20T12:44:23.749Z,2.80
2019-03-20T12:46:54.284Z,1.95
2019-03-20T12:49:24.994Z,2.50
2019-03-20T12:51:55.539Z,2.70
2019-03-20T12:54:25.965Z,2.33
2019-03-20T12:56:56.429Z,2.80
2019-03-20T12:59:26.859Z,2.50
2019-03-20T13:01:57.330Z,2.87
2019-03-20T13:04:27.739Z,2.72
2019-03-20T13:06:58.273Z,2.70
2019-03-20T13:09:28.777Z,2.52
2019-03-20T13:11:59.278Z,2.27
2019-03-20T13:14:29.696Z,2.35
2019-03-20T13:17:00.375Z,1.90
2019-03-20T13:19:31.025Z,1.90
2019-03-20T13:22:01.493Z,1.60
2019-03-20T13:24:31.922Z,2.22
2019-03-20T13:27:02.384Z,2.40
2019-03-20T13:29:32.799Z,2.12
2019-03-20T13:32:03.818Z,2.55
2019-03-20T13:34:34.410Z,2.58
2019-03-20T13:37:04.956Z,4.10
2019-03-20T13:39:35.447Z,3.12
2019-03-20T13:42:05.982Z,3.40
2019-03-20T13:44:36.476Z,2.22
2019-03-20T13:47:08.228Z,2.83
2019-03-20T13:49:38.901Z,5.67
2019-03-20T13:52:10.492Z,4.72
2019-03-20T13:54:41.000Z,2.45
2019-03-20T13:57:11.466Z,2.17
2019-03-20T13:59:41.953Z,2.12
2019-03-20T14:02:12.421Z,3.27
2019-03-20T14:04:42.847Z,4.22
2019-03-20T14:07:13.372Z,2.45
2019-03-20T14:09:43.868Z,2.50
2019-03-20T14:12:14.414Z,2.75
2019-03-20T14:14:44.835Z,2.70
2019-03-20T14:17:15.366Z,1.80
2019-03-20T14:19:45.795Z,2.45
2019-03-20T14:22:16.258Z,2.58
2019-03-20T14:24:46.687Z,3.67
2019-03-20T14:27:18.300Z,3.25
2019-03-20T14:29:48.721Z,1.82
2019-03-20T14:32:19.176Z,2.00
2019-03-20T14:34:49.677Z,1.95
2019-03-20T14:37:20.150Z,2.37
2019-03-20T14:39:50.744Z,2.22
2019-03-20T14:42:21.224Z,4.58
2019-03-20T14:44:51.876Z,4.25
2019-03-20T14:47:22.463Z,4.90
2019-03-20T14:49:52.969Z,2.80
2019-03-20T14:52:23.568Z,2.12
2019-03-20T14:54:54.028Z,2.58
2019-03-20T14:57:24.583Z,2.40
2019-03-20T14:59:55.071Z,2.77
2019-03-20T15:02:27.200Z,2.35
2019-03-20T15:04:58.607Z,1.77
2019-03-20T15:07:28.671Z,1.92
2019-03-20T15:09:59.155Z,1.60
2019-03-20T15:12:29.696Z,2.45
2019-03-20T15:15:00.292Z,2.37
2019-03-20T15:17:30.820Z,2.17
2019-03-20T15:20:02.310Z,2.08
2019-03-20T15:22:32.775Z,2.60
2019-03-20T15:25:03.213Z,2.20
2019-03-20T15:27:33.673Z,3.12
2019-03-20T15:30:13.121Z,2.45
2019-03-20T15:32:43.733Z,2.67
2019-03-20T15:35:14.156Z,2.30
2019-03-20T15:37:44.718Z,2.72
2019-03-20T15:40:21.179Z,2.50
2019-03-20T15:42:51.637Z,2.65
2019-03-20T15:45:22.197Z,2.10
2019-03-20T15:47:52.682Z,3.85
2019-03-20T15:50:29.425Z,2.60
2019-03-20T15:52:59.953Z,2.47
2019-03-20T15:55:36.113Z,2.47
2019-03-20T15:58:06.643Z,3.62
2019-03-20T16:00:37.131Z,2.80
2019-03-20T16:03:23.033Z,4.00
2019-03-20T16:05:53.541Z,3.58
2019-03-20T16:08:24.142Z,5.83
2019-03-20T16:10:54.590Z,7.92
2019-03-20T16:13:25.049Z,4.25
2019-03-20T16:15:55.480Z,3.37
2019-03-20T16:18:27.021Z,4.22
2019-03-20T16:20:57.483Z,4.08
2019-03-20T16:23:27.964Z,2.90
2019-03-20T16:25:58.383Z,2.58
2019-03-20T16:28:28.847Z,6.67
2019-03-20T16:30:59.292Z,8.33
2019-03-20T16:33:29.978Z,7.15
2019-03-20T16:36:00.419Z,11.65
2019-03-20T16:38:31.808Z,6.40
2019-03-20T16:41:02.299Z,3.47
2019-03-20T16:43:32.768Z,1.87
2019-03-20T16:46:03.257Z,1.72
2019-03-20T16:48:33.811Z,2.85
2019-03-20T16:51:04.394Z,2.60
2019-03-20T16:53:34.990Z,2.17
2019-03-20T16:56:05.495Z,2.52
2019-03-20T16:58:36.028Z,2.33
2019-03-20T17:01:06.529Z,2.60
2019-03-20T17:03:37.127Z,2.22
2019-03-20T17:06:07.574Z,3.00
2019-03-20T17:08:38.429Z,3.30
2019-03-20T17:11:08.937Z,3.55
2019-03-20T17:13:39.763Z,4.03
2019-03-20T17:16:10.213Z,18.30
2019-03-20T17:18:40.935Z,17.92
2019-03-20T17:21:11.518Z,15.75
2019-03-20T17:23:46.565Z,10.30
2019-03-20T17:26:17.011Z,11.35
2019-03-20T17:28:47.471Z,14.47
2019-03-20T17:31:17.976Z,26.75
2019-03-20T17:33:48.445Z,37.60
2019-03-20T17:36:18.904Z,40.40
2019-03-20T17:38:49.399Z,44.90
2019-03-20T17:41:19.928Z,42.75
2019-03-20T17:43:50.393Z,41.60
2019-03-20T17:46:20.966Z,38.88
2019-03-20T17:48:51.490Z,40.25
2019-03-20T17:51:22.064Z,35.17
2019-03-20T17:53:52.678Z,28.45
2019-03-20T17:56:23.195Z,25.02
2019-03-20T17:58:53.751Z,27.10
2019-03-20T18:01:25.835Z,24.50
2019-03-20T18:03:56.308Z,21.45
2019-03-20T18:06:26.892Z,17.77
2019-03-20T18:08:57.369Z,16.90
2019-03-20T18:11:27.819Z,20.75
2019-03-20T18:13:58.359Z,44.13
2019-03-20T18:16:28.869Z,31.25
2019-03-20T18:18:59.412Z,27.42
2019-03-20T18:21:29.828Z,23.30
2019-03-20T18:24:02.071Z,15.93
2019-03-20T18:26:32.604Z,12.25
2019-03-20T18:29:03.155Z,9.33
2019-03-20T18:31:33.633Z,7.85
2019-03-20T18:34:04.148Z,9.35
2019-03-20T18:36:34.658Z,11.78
2019-03-20T18:39:07.357Z,13.05
2019-03-20T18:41:37.812Z,16.73
2019-03-20T18:44:08.349Z,21.77
2019-03-20T18:46:38.861Z,22.93
2019-03-20T18:49:10.193Z,23.25
2019-03-20T18:51:42.103Z,21.97
2019-03-20T18:54:12.548Z,28.67
2019-03-20T18:56:43.001Z,23.95
2019-03-20T18:59:13.432Z,23.32
2019-03-20T19:01:43.875Z,31.10
2019-03-20T19:04:14.352Z,125.58
2019-03-20T19:06:44.950Z,119.95
2019-03-20T19:09:15.475Z,123.20
2019-03-20T19:11:46.084Z,99.85
2019-03-20T19:14:16.804Z,86.40
2019-03-20T19:16:47.339Z,73.70
2019-03-20T19:19:17.786Z,59.75
2019-03-20T19:21:48.366Z,58.05
2019-03-20T19:24:18.805Z,32.67
2019-03-20T19:26:49.395Z,22.60
2019-03-20T19:29:19.917Z,20.90
2019-03-20T19:31:50.361Z,12.85
2019-03-20T19:34:20.881Z,13.88
2019-03-20T19:36:51.321Z,10.78
2019-03-20T19:39:21.756Z,11.15
2019-03-20T19:41:52.211Z,12.63
2019-03-20T19:44:22.801Z,12.13
2019-03-20T19:46:53.275Z,24.45
2019-03-20T19:49:23.863Z,41.28
2019-03-20T19:51:54.414Z,17.00
2019-03-20T19:54:25.051Z,10.48
2019-03-20T19:56:56.096Z,9.58
2019-03-20T19:59:27.076Z,8.33
2019-03-20T20:01:59.468Z,9.53
2019-03-20T20:04:30.115Z,9.93
2019-03-20T20:07:01.114Z,10.15
2019-03-20T20:09:31.915Z,7.55
2019-03-20T20:12:02.391Z,5.90
2019-03-20T20:14:32.902Z,4.60
2019-03-20T20:17:03.503Z,5.60
2019-03-20T20:19:34.011Z,5.67
2019-03-20T20:22:04.552Z,6.05
2019-03-20T20:24:35.052Z,5.65
2019-03-20T20:27:10.877Z,7.20
2019-03-20T20:29:42.683Z,7.47
2019-03-20T20:32:13.418Z,8.08
2019-03-20T20:34:43.938Z,8.10
2019-03-20T20:37:15.513Z,7.97
2019-03-20T20:39:45.998Z,9.00
2019-03-20T20:42:16.548Z,8.58
2019-03-20T20:44:46.987Z,7.75
2019-03-20T20:47:17.450Z,8.55
2019-03-20T20:49:47.878Z,7.10
2019-03-20T20:52:19.912Z,7.85
2019-03-20T20:54:52.096Z,8.70
2019-03-20T20:57:23.157Z,7.35
2019-03-20T20:59:53.591Z,8.33
2019-03-20T21:02:24.033Z,6.50
2019-03-20T21:04:54.532Z,7.47
2019-03-20T21:07:26.616Z,7.20
2019-03-20T21:09:57.167Z,7.17
2019-03-20T21:12:27.643Z,8.00
2019-03-20T21:14:58.132Z,8.05
2019-03-20T21:17:31.874Z,7.75
2019-03-20T21:20:02.376Z,8.55
2019-03-20T21:22:36.156Z,8.28
2019-03-20T21:25:06.713Z,8.73
2019-03-20T21:28:06.381Z,11.15
2019-03-20T21:30:49.394Z,10.60
2019-03-20T21:33:27.125Z,10.70
2019-03-20T21:36:20.136Z,7.33
2019-03-20T21:38:51.562Z,7.15
2019-03-20T21:41:31.674Z,6.70
2019-03-20T21:44:25.153Z,7.15
2019-03-20T21:47:34.263Z,6.87
2019-03-20T21:50:21.339Z,7.65
2019-03-20T21:52:51.784Z,7.55
2019-03-20T21:55:28.076Z,6.85
2019-03-20T21:58:13.643Z,6.92
2019-03-20T22:00:50.026Z,7.70
2019-03-20T22:03:20.621Z,7.20
2019-03-20T22:06:06.527Z,7.42
2019-03-20T22:08:37.037Z,7.70
2019-03-20T22:11:16.086Z,7.20
2019-03-20T22:13:52.487Z,7.10
2019-03-20T22:16:35.294Z,6.33
2019-03-20T22:19:34.724Z,6.92
2019-03-20T22:22:44.681Z,7.37
2019-03-20T22:25:46.960Z,8.20
2019-03-20T22:28:47.770Z,7.33
2019-03-20T22:31:18.541Z,6.75
2019-03-20T22:34:25.636Z,7.85
2019-03-20T22:36:56.153Z,7.47
2019-03-20T22:39:57.950Z,6.45
2019-03-20T22:42:54.488Z,8.95
2019-03-20T22:45:39.994Z,7.65
2019-03-20T22:48:13.784Z,8.18
2019-03-20T22:51:05.676Z,8.55
2019-03-20T22:53:54.272Z,7.53
2019-03-20T22:56:57.051Z,6.83
2019-03-20T22:59:27.640Z,6.75
2019-03-20T23:02:07.863Z,7.47
2019-03-20T23:04:41.624Z,7.47
2019-03-20T23:07:12.074Z,7.60
2019-03-20T23:09:42.607Z,7.65
2019-03-20T23:12:14.065Z,7.60
2019-03-20T23:14:44.653Z,5.85
2019-03-20T23:17:15.268Z,7.22
2019-03-20T23:19:46.619Z,7.83
2019-03-20T23:22:17.187Z,6.08
2019-03-20T23:24:47.634Z,5.70
2019-03-20T23:27:24.126Z,7.55
2019-03-20T23:29:54.637Z,8.23
2019-03-20T23:32:25.329Z,8.25
2019-03-20T23:34:55.833Z,8.13
2019-03-20T23:37:26.581Z,7.62
2019-03-20T23:39:57.079Z,8.20
2019-03-20T23:42:27.613Z,8.35
2019-03-20T23:44:58.107Z,8.85
2019-03-20T23:47:31.912Z,8.25
2019-03-20T23:50:02.507Z,8.78
2019-03-20T23:52:33.138Z,7.90
2019-03-20T23:55:04.593Z,9.03
2019-03-20T23:57:35.118Z,7.00
